Current | Forecast
Updated: 9:00 PM +05 on October 19, 2017
Observed at Yekaterinburg, Russia
Temperature 41°F
Windchill 34°F
Humidity 81%
Dew Point 36°F
Wind WSW at 11 mph
Pressure 29.39 in (Steady)
Conditions Scattered Clouds
Visibility 6.2 miles
UV 0 out of 16
Clouds Scattered Clouds (SCT) : 3000 ft
Yesterday's Maximum 48°F
Yesterday's Minimum 34°F approx.
Yesterday's Heating Degree Days 24 approx.
Sunrise7:38 AM +05
Sunset5:42 PM +05
Moon Rise6:33 AM +05
Moon Set6:04 PM +05
Moon PhaseMoon Phase
Waning Crescent
Raw METARMETAR USSS 191600Z 24005MPS 9999 SCT030CB 05/02 Q0995 R26R/290036 NOSIG RMK QFE726/0968


Monday
. High: 71° F.
Tuesday
. High: 69° F.
Wednesday
. High: 78° F.
Thursday
. High: 53° F.
Friday
. High: 53° F.
Saturday
. High: 55° F.
Sunday
. High: 48° F.
Monday
. High: 57° F.

Units: English | Metric

Find the Weather for any City, State or Zipcode, or Country:

U.S. State List | Severe Weather | Tropical Storms | Ski Conditions
United States | Canada | Central America | South America | Asia | Europe | Australia | Africa | Islands

Weather Underground

© Copyright 2017
The Weather Company, LLC